sensor_id;sensor_type;location;lat;lon;timestamp;P1;durP1;ratioP1;P2;durP2;ratioP2
29568;SDS011;16501;51.462;14.346;2023-04-24T00:02:06;3.78;;;2.08;;
29568;SDS011;16501;51.462;14.346;2023-04-24T00:04:35;3.28;;;2.40;;
29568;SDS011;16501;51.462;14.346;2023-04-24T00:07:01;5.80;;;2.63;;
29568;SDS011;16501;51.462;14.346;2023-04-24T00:09:26;2.58;;;2.05;;
29568;SDS011;16501;51.462;14.346;2023-04-24T00:11:52;5.22;;;2.78;;
29568;SDS011;16501;51.462;14.346;2023-04-24T00:14:17;2.70;;;2.17;;
29568;SDS011;16501;51.462;14.346;2023-04-24T00:16:43;3.03;;;2.50;;
29568;SDS011;16501;51.462;14.346;2023-04-24T00:19:08;8.05;;;2.60;;
29568;SDS011;16501;51.462;14.346;2023-04-24T00:21:33;3.88;;;2.72;;
29568;SDS011;16501;51.462;14.346;2023-04-24T00:23:58;4.63;;;2.88;;
29568;SDS011;16501;51.462;14.346;2023-04-24T00:26:24;4.35;;;2.75;;
29568;SDS011;16501;51.462;14.346;2023-04-24T00:28:49;3.35;;;2.90;;
29568;SDS011;16501;51.462;14.346;2023-04-24T00:31:14;4.85;;;2.80;;
29568;SDS011;16501;51.462;14.346;2023-04-24T00:33:39;5.18;;;3.08;;
29568;SDS011;16501;51.462;14.346;2023-04-24T00:36:05;4.38;;;3.00;;
29568;SDS011;16501;51.462;14.346;2023-04-24T00:38:30;3.35;;;2.70;;
29568;SDS011;16501;51.462;14.346;2023-04-24T00:40:56;4.03;;;2.72;;
29568;SDS011;16501;51.462;14.346;2023-04-24T00:43:21;3.78;;;2.65;;
29568;SDS011;16501;51.462;14.346;2023-04-24T00:45:46;5.15;;;2.83;;
29568;SDS011;16501;51.462;14.346;2023-04-24T00:48:12;4.30;;;2.80;;
29568;SDS011;16501;51.462;14.346;2023-04-24T00:50:37;5.70;;;2.58;;
29568;SDS011;16501;51.462;14.346;2023-04-24T00:53:04;2.78;;;2.10;;
29568;SDS011;16501;51.462;14.346;2023-04-24T00:55:29;9.25;;;2.85;;
29568;SDS011;16501;51.462;14.346;2023-04-24T00:57:55;10.02;;;2.70;;
29568;SDS011;16501;51.462;14.346;2023-04-24T01:00:20;5.60;;;2.53;;
29568;SDS011;16501;51.462;14.346;2023-04-24T01:02:47;5.43;;;2.75;;
29568;SDS011;16501;51.462;14.346;2023-04-24T01:05:13;4.20;;;2.80;;
29568;SDS011;16501;51.462;14.346;2023-04-24T01:07:40;4.43;;;3.08;;
29568;SDS011;16501;51.462;14.346;2023-04-24T01:10:09;4.35;;;2.95;;
29568;SDS011;16501;51.462;14.346;2023-04-24T01:12:35;3.10;;;2.70;;
29568;SDS011;16501;51.462;14.346;2023-04-24T01:15:00;3.63;;;2.92;;
29568;SDS011;16501;51.462;14.346;2023-04-24T01:17:25;3.47;;;2.95;;
29568;SDS011;16501;51.462;14.346;2023-04-24T01:19:51;4.90;;;3.03;;
29568;SDS011;16501;51.462;14.346;2023-04-24T01:22:21;5.32;;;2.80;;
29568;SDS011;16501;51.462;14.346;2023-04-24T01:24:47;4.10;;;3.33;;
29568;SDS011;16501;51.462;14.346;2023-04-24T01:27:12;5.50;;;3.40;;
29568;SDS011;16501;51.462;14.346;2023-04-24T01:29:38;6.90;;;3.35;;
29568;SDS011;16501;51.462;14.346;2023-04-24T01:32:04;6.57;;;3.53;;
29568;SDS011;16501;51.462;14.346;2023-04-24T01:34:30;3.40;;;2.83;;
29568;SDS011;16501;51.462;14.346;2023-04-24T01:36:55;6.10;;;3.22;;
29568;SDS011;16501;51.462;14.346;2023-04-24T01:39:21;3.22;;;2.45;;
29568;SDS011;16501;51.462;14.346;2023-04-24T01:41:48;5.13;;;2.95;;
29568;SDS011;16501;51.462;14.346;2023-04-24T01:44:14;5.32;;;2.72;;
29568;SDS011;16501;51.462;14.346;2023-04-24T01:46:40;2.95;;;2.30;;
29568;SDS011;16501;51.462;14.346;2023-04-24T01:49:06;3.42;;;2.28;;
29568;SDS011;16501;51.462;14.346;2023-04-24T01:51:31;3.40;;;2.83;;
29568;SDS011;16501;51.462;14.346;2023-04-24T01:53:56;3.00;;;2.63;;
29568;SDS011;16501;51.462;14.346;2023-04-24T01:56:22;7.40;;;3.05;;
29568;SDS011;16501;51.462;14.346;2023-04-24T01:58:48;6.57;;;3.03;;
29568;SDS011;16501;51.462;14.346;2023-04-24T02:01:17;3.75;;;2.65;;
29568;SDS011;16501;51.462;14.346;2023-04-24T02:03:43;3.13;;;2.83;;
29568;SDS011;16501;51.462;14.346;2023-04-24T02:06:09;3.22;;;2.80;;
29568;SDS011;16501;51.462;14.346;2023-04-24T02:08:34;3.05;;;2.75;;
29568;SDS011;16501;51.462;14.346;2023-04-24T02:10:59;5.25;;;2.60;;
29568;SDS011;16501;51.462;14.346;2023-04-24T02:13:26;3.25;;;2.88;;
29568;SDS011;16501;51.462;14.346;2023-04-24T02:15:51;5.22;;;3.17;;
29568;SDS011;16501;51.462;14.346;2023-04-24T02:18:17;4.30;;;3.60;;
29568;SDS011;16501;51.462;14.346;2023-04-24T02:20:42;5.43;;;3.00;;
29568;SDS011;16501;51.462;14.346;2023-04-24T02:23:07;4.38;;;3.55;;
29568;SDS011;16501;51.462;14.346;2023-04-24T02:25:33;4.28;;;3.22;;
29568;SDS011;16501;51.462;14.346;2023-04-24T02:27:58;7.13;;;3.15;;
29568;SDS011;16501;51.462;14.346;2023-04-24T02:30:23;5.72;;;3.05;;
29568;SDS011;16501;51.462;14.346;2023-04-24T02:32:48;4.72;;;3.05;;
29568;SDS011;16501;51.462;14.346;2023-04-24T02:35:14;4.50;;;3.35;;
29568;SDS011;16501;51.462;14.346;2023-04-24T02:37:39;4.47;;;3.00;;
29568;SDS011;16501;51.462;14.346;2023-04-24T02:40:05;3.67;;;3.25;;
29568;SDS011;16501;51.462;14.346;2023-04-24T02:42:30;4.03;;;3.03;;
29568;SDS011;16501;51.462;14.346;2023-04-24T02:44:56;4.35;;;3.22;;
29568;SDS011;16501;51.462;14.346;2023-04-24T02:47:21;4.32;;;3.15;;
29568;SDS011;16501;51.462;14.346;2023-04-24T02:49:46;5.05;;;3.53;;
29568;SDS011;16501;51.462;14.346;2023-04-24T02:52:11;5.85;;;3.85;;
29568;SDS011;16501;51.462;14.346;2023-04-24T02:54:37;8.63;;;4.00;;
29568;SDS011;16501;51.462;14.346;2023-04-24T02:57:02;4.18;;;3.40;;
29568;SDS011;16501;51.462;14.346;2023-04-24T02:59:27;7.10;;;3.58;;
29568;SDS011;16501;51.462;14.346;2023-04-24T03:01:53;4.63;;;3.65;;
29568;SDS011;16501;51.462;14.346;2023-04-24T03:04:21;7.95;;;4.05;;
29568;SDS011;16501;51.462;14.346;2023-04-24T03:06:47;5.25;;;3.80;;
29568;SDS011;16501;51.462;14.346;2023-04-24T03:09:12;5.82;;;4.15;;
29568;SDS011;16501;51.462;14.346;2023-04-24T03:11:37;6.90;;;3.33;;
29568;SDS011;16501;51.462;14.346;2023-04-24T03:14:03;6.45;;;3.95;;
29568;SDS011;16501;51.462;14.346;2023-04-24T03:16:28;4.13;;;3.42;;
29568;SDS011;16501;51.462;14.346;2023-04-24T03:18:53;5.35;;;3.65;;
29568;SDS011;16501;51.462;14.346;2023-04-24T03:21:18;4.13;;;3.20;;
29568;SDS011;16501;51.462;14.346;2023-04-24T03:23:44;4.65;;;3.53;;
29568;SDS011;16501;51.462;14.346;2023-04-24T03:26:09;4.80;;;4.13;;
29568;SDS011;16501;51.462;14.346;2023-04-24T03:28:35;5.20;;;3.55;;
29568;SDS011;16501;51.462;14.346;2023-04-24T03:31:00;5.07;;;3.97;;
29568;SDS011;16501;51.462;14.346;2023-04-24T03:33:25;5.03;;;3.83;;
29568;SDS011;16501;51.462;14.346;2023-04-24T03:35:51;10.48;;;3.72;;
29568;SDS011;16501;51.462;14.346;2023-04-24T03:38:16;5.20;;;4.13;;
29568;SDS011;16501;51.462;14.346;2023-04-24T03:40:41;4.97;;;3.47;;
29568;SDS011;16501;51.462;14.346;2023-04-24T03:43:06;7.18;;;4.03;;
29568;SDS011;16501;51.462;14.346;2023-04-24T03:45:32;4.97;;;3.90;;
29568;SDS011;16501;51.462;14.346;2023-04-24T03:47:57;6.82;;;3.90;;
29568;SDS011;16501;51.462;14.346;2023-04-24T03:50:22;8.05;;;6.30;;
29568;SDS011;16501;51.462;14.346;2023-04-24T03:52:47;5.78;;;3.97;;
29568;SDS011;16501;51.462;14.346;2023-04-24T03:55:13;9.43;;;3.88;;
29568;SDS011;16501;51.462;14.346;2023-04-24T03:57:39;5.03;;;3.72;;
29568;SDS011;16501;51.462;14.346;2023-04-24T04:00:05;7.97;;;4.25;;
29568;SDS011;16501;51.462;14.346;2023-04-24T04:02:31;7.15;;;4.45;;
29568;SDS011;16501;51.462;14.346;2023-04-24T04:04:56;8.27;;;4.40;;
29568;SDS011;16501;51.462;14.346;2023-04-24T04:07:21;4.63;;;4.15;;
29568;SDS011;16501;51.462;14.346;2023-04-24T04:09:47;6.45;;;4.78;;
29568;SDS011;16501;51.462;14.346;2023-04-24T04:12:12;8.90;;;5.03;;
29568;SDS011;16501;51.462;14.346;2023-04-24T04:14:37;5.88;;;4.40;;
29568;SDS011;16501;51.462;14.346;2023-04-24T04:17:03;6.45;;;4.10;;
29568;SDS011;16501;51.462;14.346;2023-04-24T04:19:28;6.03;;;4.03;;
29568;SDS011;16501;51.462;14.346;2023-04-24T04:21:53;7.35;;;4.15;;
29568;SDS011;16501;51.462;14.346;2023-04-24T04:24:21;8.05;;;4.70;;
29568;SDS011;16501;51.462;14.346;2023-04-24T04:26:47;5.22;;;3.85;;
29568;SDS011;16501;51.462;14.346;2023-04-24T04:29:13;5.32;;;4.00;;
29568;SDS011;16501;51.462;14.346;2023-04-24T04:31:38;6.25;;;4.70;;
29568;SDS011;16501;51.462;14.346;2023-04-24T04:34:04;7.35;;;4.38;;
29568;SDS011;16501;51.462;14.346;2023-04-24T04:36:29;6.50;;;4.30;;
29568;SDS011;16501;51.462;14.346;2023-04-24T04:38:55;5.90;;;4.13;;
29568;SDS011;16501;51.462;14.346;2023-04-24T04:41:21;7.20;;;3.70;;
29568;SDS011;16501;51.462;14.346;2023-04-24T04:43:46;4.75;;;3.70;;
29568;SDS011;16501;51.462;14.346;2023-04-24T04:46:12;9.63;;;4.45;;
29568;SDS011;16501;51.462;14.346;2023-04-24T04:48:37;7.03;;;3.83;;
29568;SDS011;16501;51.462;14.346;2023-04-24T04:51:03;8.82;;;3.63;;
29568;SDS011;16501;51.462;14.346;2023-04-24T04:53:28;5.97;;;3.80;;
29568;SDS011;16501;51.462;14.346;2023-04-24T04:55:53;8.07;;;4.30;;
29568;SDS011;16501;51.462;14.346;2023-04-24T04:58:19;7.00;;;3.95;;
29568;SDS011;16501;51.462;14.346;2023-04-24T05:00:44;4.85;;;3.58;;
29568;SDS011;16501;51.462;14.346;2023-04-24T05:03:10;4.45;;;3.60;;
29568;SDS011;16501;51.462;14.346;2023-04-24T05:05:35;4.72;;;3.92;;
29568;SDS011;16501;51.462;14.346;2023-04-24T05:08:00;10.98;;;3.78;;
29568;SDS011;16501;51.462;14.346;2023-04-24T05:10:25;6.85;;;4.20;;
29568;SDS011;16501;51.462;14.346;2023-04-24T05:12:51;6.78;;;4.00;;
29568;SDS011;16501;51.462;14.346;2023-04-24T05:15:16;4.70;;;3.40;;
29568;SDS011;16501;51.462;14.346;2023-04-24T05:17:41;6.43;;;3.25;;
29568;SDS011;16501;51.462;14.346;2023-04-24T05:20:06;4.95;;;3.97;;
29568;SDS011;16501;51.462;14.346;2023-04-24T05:22:32;3.67;;;3.20;;
29568;SDS011;16501;51.462;14.346;2023-04-24T05:24:58;4.07;;;2.80;;
29568;SDS011;16501;51.462;14.346;2023-04-24T05:27:23;2.92;;;2.47;;
29568;SDS011;16501;51.462;14.346;2023-04-24T05:29:49;5.60;;;2.75;;
29568;SDS011;16501;51.462;14.346;2023-04-24T05:32:14;4.93;;;2.60;;
29568;SDS011;16501;51.462;14.346;2023-04-24T05:34:40;4.25;;;2.55;;
29568;SDS011;16501;51.462;14.346;2023-04-24T05:37:07;3.40;;;2.20;;
29568;SDS011;16501;51.462;14.346;2023-04-24T05:39:34;3.58;;;1.98;;
29568;SDS011;16501;51.462;14.346;2023-04-24T05:42:00;3.88;;;2.63;;
29568;SDS011;16501;51.462;14.346;2023-04-24T05:44:26;5.88;;;2.13;;
29568;SDS011;16501;51.462;14.346;2023-04-24T05:46:51;4.65;;;1.92;;
29568;SDS011;16501;51.462;14.346;2023-04-24T05:49:16;3.70;;;1.52;;
29568;SDS011;16501;51.462;14.346;2023-04-24T05:51:42;2.03;;;1.40;;
29568;SDS011;16501;51.462;14.346;2023-04-24T05:54:07;9.82;;;1.65;;
29568;SDS011;16501;51.462;14.346;2023-04-24T05:56:32;6.20;;;1.30;;
29568;SDS011;16501;51.462;14.346;2023-04-24T05:58:58;3.50;;;1.15;;
29568;SDS011;16501;51.462;14.346;2023-04-24T06:01:23;1.70;;;1.13;;
29568;SDS011;16501;51.462;14.346;2023-04-24T06:03:50;1.67;;;1.10;;
29568;SDS011;16501;51.462;14.346;2023-04-24T06:06:15;3.75;;;0.90;;
29568;SDS011;16501;51.462;14.346;2023-04-24T06:08:41;1.25;;;0.85;;
29568;SDS011;16501;51.462;14.346;2023-04-24T06:11:07;1.55;;;1.13;;
29568;SDS011;16501;51.462;14.346;2023-04-24T06:13:32;2.13;;;1.00;;
29568;SDS011;16501;51.462;14.346;2023-04-24T06:15:57;1.77;;;0.80;;
29568;SDS011;16501;51.462;14.346;2023-04-24T06:18:23;2.70;;;1.05;;
29568;SDS011;16501;51.462;14.346;2023-04-24T06:20:48;2.85;;;0.90;;
29568;SDS011;16501;51.462;14.346;2023-04-24T06:23:14;2.03;;;0.80;;
29568;SDS011;16501;51.462;14.346;2023-04-24T06:25:39;2.08;;;0.80;;
29568;SDS011;16501;51.462;14.346;2023-04-24T06:28:05;3.53;;;0.85;;
29568;SDS011;16501;51.462;14.346;2023-04-24T06:30:30;9.38;;;0.82;;
29568;SDS011;16501;51.462;14.346;2023-04-24T06:32:56;2.63;;;0.68;;
29568;SDS011;16501;51.462;14.346;2023-04-24T06:35:21;2.38;;;0.70;;
29568;SDS011;16501;51.462;14.346;2023-04-24T06:37:46;0.75;;;0.52;;
29568;SDS011;16501;51.462;14.346;2023-04-24T06:40:12;0.65;;;0.65;;
29568;SDS011;16501;51.462;14.346;2023-04-24T06:42:37;1.95;;;0.80;;
29568;SDS011;16501;51.462;14.346;2023-04-24T06:45:03;3.10;;;0.80;;
29568;SDS011;16501;51.462;14.346;2023-04-24T06:47:29;1.60;;;1.30;;
29568;SDS011;16501;51.462;14.346;2023-04-24T06:49:54;0.75;;;0.70;;
29568;SDS011;16501;51.462;14.346;2023-04-24T06:52:20;3.28;;;0.70;;
29568;SDS011;16501;51.462;14.346;2023-04-24T06:54:45;1.70;;;0.60;;
29568;SDS011;16501;51.462;14.346;2023-04-24T06:57:11;3.05;;;0.80;;
29568;SDS011;16501;51.462;14.346;2023-04-24T06:59:36;2.15;;;0.50;;
29568;SDS011;16501;51.462;14.346;2023-04-24T07:02:02;1.67;;;0.45;;
29568;SDS011;16501;51.462;14.346;2023-04-24T07:04:27;2.88;;;0.70;;
29568;SDS011;16501;51.462;14.346;2023-04-24T07:06:53;0.85;;;0.60;;
29568;SDS011;16501;51.462;14.346;2023-04-24T07:09:23;1.30;;;0.70;;
29568;SDS011;16501;51.462;14.346;2023-04-24T07:11:50;1.95;;;0.70;;
29568;SDS011;16501;51.462;14.346;2023-04-24T07:14:16;10.13;;;5.88;;
29568;SDS011;16501;51.462;14.346;2023-04-24T07:16:42;2.15;;;1.52;;
29568;SDS011;16501;51.462;14.346;2023-04-24T07:19:08;3.75;;;1.20;;
29568;SDS011;16501;51.462;14.346;2023-04-24T07:21:33;2.15;;;0.80;;
29568;SDS011;16501;51.462;14.346;2023-04-24T07:23:58;1.83;;;0.90;;
29568;SDS011;16501;51.462;14.346;2023-04-24T07:26:25;3.55;;;0.70;;
29568;SDS011;16501;51.462;14.346;2023-04-24T07:28:51;1.08;;;0.90;;
29568;SDS011;16501;51.462;14.346;2023-04-24T07:31:16;0.80;;;0.65;;
29568;SDS011;16501;51.462;14.346;2023-04-24T07:33:41;4.20;;;0.93;;
29568;SDS011;16501;51.462;14.346;2023-04-24T07:36:06;2.20;;;1.00;;
29568;SDS011;16501;51.462;14.346;2023-04-24T07:38:32;1.60;;;0.88;;
29568;SDS011;16501;51.462;14.346;2023-04-24T07:40:57;1.70;;;0.80;;
29568;SDS011;16501;51.462;14.346;2023-04-24T07:43:22;2.08;;;0.77;;
29568;SDS011;16501;51.462;14.346;2023-04-24T07:45:48;4.15;;;0.75;;
29568;SDS011;16501;51.462;14.346;2023-04-24T07:48:15;2.17;;;1.00;;
29568;SDS011;16501;51.462;14.346;2023-04-24T07:50:41;1.20;;;0.85;;
29568;SDS011;16501;51.462;14.346;2023-04-24T07:53:06;1.50;;;0.98;;
29568;SDS011;16501;51.462;14.346;2023-04-24T07:55:32;4.22;;;1.45;;
29568;SDS011;16501;51.462;14.346;2023-04-24T07:57:57;7.03;;;1.30;;
29568;SDS011;16501;51.462;14.346;2023-04-24T08:00:22;2.35;;;1.50;;
29568;SDS011;16501;51.462;14.346;2023-04-24T08:02:48;3.47;;;2.45;;
29568;SDS011;16501;51.462;14.346;2023-04-24T08:05:13;1.90;;;1.13;;
29568;SDS011;16501;51.462;14.346;2023-04-24T08:07:38;8.02;;;1.38;;
29568;SDS011;16501;51.462;14.346;2023-04-24T08:10:04;1.38;;;0.70;;
29568;SDS011;16501;51.462;14.346;2023-04-24T08:12:29;3.03;;;0.90;;
29568;SDS011;16501;51.462;14.346;2023-04-24T08:14:55;2.78;;;1.02;;
29568;SDS011;16501;51.462;14.346;2023-04-24T08:17:20;2.25;;;1.20;;
29568;SDS011;16501;51.462;14.346;2023-04-24T08:19:45;3.33;;;0.95;;
29568;SDS011;16501;51.462;14.346;2023-04-24T08:22:13;2.80;;;0.80;;
29568;SDS011;16501;51.462;14.346;2023-04-24T08:24:41;1.73;;;0.90;;
29568;SDS011;16501;51.462;14.346;2023-04-24T08:27:06;3.22;;;1.00;;
29568;SDS011;16501;51.462;14.346;2023-04-24T08:29:32;2.25;;;1.00;;
29568;SDS011;16501;51.462;14.346;2023-04-24T08:31:57;2.08;;;1.08;;
29568;SDS011;16501;51.462;14.346;2023-04-24T08:34:22;3.40;;;0.90;;
29568;SDS011;16501;51.462;14.346;2023-04-24T08:36:48;2.45;;;0.85;;
29568;SDS011;16501;51.462;14.346;2023-04-24T08:39:13;1.75;;;0.57;;
29568;SDS011;16501;51.462;14.346;2023-04-24T08:41:40;1.48;;;0.80;;
29568;SDS011;16501;51.462;14.346;2023-04-24T08:44:07;1.80;;;0.63;;
29568;SDS011;16501;51.462;14.346;2023-04-24T08:46:33;3.15;;;0.90;;
29568;SDS011;16501;51.462;14.346;2023-04-24T08:48:59;6.20;;;1.20;;
29568;SDS011;16501;51.462;14.346;2023-04-24T08:51:25;1.42;;;0.90;;
29568;SDS011;16501;51.462;14.346;2023-04-24T08:53:52;2.78;;;1.05;;
29568;SDS011;16501;51.462;14.346;2023-04-24T08:56:18;1.45;;;0.80;;
29568;SDS011;16501;51.462;14.346;2023-04-24T08:58:45;2.85;;;0.95;;
29568;SDS011;16501;51.462;14.346;2023-04-24T09:01:11;4.25;;;1.10;;
29568;SDS011;16501;51.462;14.346;2023-04-24T09:03:39;4.05;;;1.00;;
29568;SDS011;16501;51.462;14.346;2023-04-24T09:06:05;1.58;;;0.70;;
29568;SDS011;16501;51.462;14.346;2023-04-24T09:08:32;1.25;;;0.85;;
29568;SDS011;16501;51.462;14.346;2023-04-24T09:10:58;0.73;;;0.60;;
29568;SDS011;16501;51.462;14.346;2023-04-24T09:13:23;1.63;;;0.75;;
29568;SDS011;16501;51.462;14.346;2023-04-24T09:15:49;1.45;;;0.82;;
29568;SDS011;16501;51.462;14.346;2023-04-24T09:18:15;2.17;;;0.75;;
29568;SDS011;16501;51.462;14.346;2023-04-24T09:23:38;3.17;;;0.80;;
29568;SDS011;16501;51.462;14.346;2023-04-24T09:26:04;2.63;;;0.77;;
29568;SDS011;16501;51.462;14.346;2023-04-24T09:28:34;3.03;;;0.82;;
29568;SDS011;16501;51.462;14.346;2023-04-24T09:33:30;2.95;;;0.50;;
29568;SDS011;16501;51.462;14.346;2023-04-24T09:35:55;0.93;;;0.70;;
29568;SDS011;16501;51.462;14.346;2023-04-24T09:38:30;2.47;;;0.98;;
29568;SDS011;16501;51.462;14.346;2023-04-24T09:40:58;3.08;;;0.80;;
29568;SDS011;16501;51.462;14.346;2023-04-24T09:43:26;3.22;;;0.80;;
29568;SDS011;16501;51.462;14.346;2023-04-24T09:45:51;4.13;;;0.75;;
29568;SDS011;16501;51.462;14.346;2023-04-24T09:48:29;3.25;;;0.80;;
29568;SDS011;16501;51.462;14.346;2023-04-24T09:50:59;0.93;;;0.63;;
29568;SDS011;16501;51.462;14.346;2023-04-24T09:53:26;1.63;;;0.73;;
29568;SDS011;16501;51.462;14.346;2023-04-24T09:55:52;2.60;;;1.00;;
29568;SDS011;16501;51.462;14.346;2023-04-24T09:58:18;3.08;;;0.93;;
29568;SDS011;16501;51.462;14.346;2023-04-24T10:00:49;3.10;;;0.70;;
29568;SDS011;16501;51.462;14.346;2023-04-24T10:03:17;1.88;;;0.80;;
29568;SDS011;16501;51.462;14.346;2023-04-24T10:05:44;2.38;;;1.00;;
29568;SDS011;16501;51.462;14.346;2023-04-24T10:08:11;0.73;;;0.70;;
29568;SDS011;16501;51.462;14.346;2023-04-24T10:10:41;1.05;;;0.70;;
29568;SDS011;16501;51.462;14.346;2023-04-24T10:13:07;3.25;;;0.75;;
29568;SDS011;16501;51.462;14.346;2023-04-24T10:15:35;2.72;;;0.73;;
29568;SDS011;16501;51.462;14.346;2023-04-24T10:18:01;3.72;;;0.73;;
29568;SDS011;16501;51.462;14.346;2023-04-24T10:20:31;2.25;;;0.70;;
29568;SDS011;16501;51.462;14.346;2023-04-24T10:22:57;1.30;;;0.50;;
29568;SDS011;16501;51.462;14.346;2023-04-24T10:25:25;15.60;;;3.22;;
29568;SDS011;16501;51.462;14.346;2023-04-24T10:27:52;4.53;;;0.88;;
29568;SDS011;16501;51.462;14.346;2023-04-24T10:30:22;3.22;;;0.70;;
29568;SDS011;16501;51.462;14.346;2023-04-24T10:32:47;4.13;;;0.68;;
29568;SDS011;16501;51.462;14.346;2023-04-24T10:35:13;3.53;;;0.98;;
29568;SDS011;16501;51.462;14.346;2023-04-24T10:37:45;3.60;;;0.90;;
29568;SDS011;16501;51.462;14.346;2023-04-24T10:40:24;4.50;;;1.25;;
29568;SDS011;16501;51.462;14.346;2023-04-24T10:42:51;1.75;;;0.88;;
29568;SDS011;16501;51.462;14.346;2023-04-24T10:45:19;3.30;;;1.10;;
29568;SDS011;16501;51.462;14.346;2023-04-24T10:47:52;3.55;;;1.25;;
29568;SDS011;16501;51.462;14.346;2023-04-24T10:50:18;5.75;;;1.73;;
29568;SDS011;16501;51.462;14.346;2023-04-24T10:52:44;4.90;;;1.42;;
29568;SDS011;16501;51.462;14.346;2023-04-24T10:55:10;2.42;;;0.88;;
29568;SDS011;16501;51.462;14.346;2023-04-24T10:57:37;4.00;;;0.80;;
29568;SDS011;16501;51.462;14.346;2023-04-24T11:00:10;1.70;;;0.75;;
29568;SDS011;16501;51.462;14.346;2023-04-24T11:02:40;4.95;;;3.15;;
29568;SDS011;16501;51.462;14.346;2023-04-24T11:05:12;2.13;;;1.17;;
29568;SDS011;16501;51.462;14.346;2023-04-24T11:10:54;5.30;;;2.67;;
29568;SDS011;16501;51.462;14.346;2023-04-24T11:19:07;2.50;;;0.98;;
29568;SDS011;16501;51.462;14.346;2023-04-24T11:26:57;1.58;;;0.50;;
29568;SDS011;16501;51.462;14.346;2023-04-24T11:29:37;0.88;;;0.43;;
29568;SDS011;16501;51.462;14.346;2023-04-24T11:32:15;1.95;;;0.57;;
29568;SDS011;16501;51.462;14.346;2023-04-24T11:35:04;0.73;;;0.57;;
29568;SDS011;16501;51.462;14.346;2023-04-24T11:37:47;1.85;;;0.60;;
29568;SDS011;16501;51.462;14.346;2023-04-24T11:40:14;2.03;;;1.27;;
29568;SDS011;16501;51.462;14.346;2023-04-24T11:42:42;1.65;;;0.90;;
29568;SDS011;16501;51.462;14.346;2023-04-24T11:47:35;1.08;;;0.65;;
29568;SDS011;16501;51.462;14.346;2023-04-24T11:50:01;1.58;;;0.77;;
29568;SDS011;16501;51.462;14.346;2023-04-24T11:52:28;2.55;;;0.90;;
29568;SDS011;16501;51.462;14.346;2023-04-24T11:54:54;1.20;;;0.88;;
29568;SDS011;16501;51.462;14.346;2023-04-24T11:57:20;1.08;;;0.95;;
29568;SDS011;16501;51.462;14.346;2023-04-24T11:59:46;3.28;;;1.52;;
29568;SDS011;16501;51.462;14.346;2023-04-24T12:02:22;3.38;;;1.52;;
29568;SDS011;16501;51.462;14.346;2023-04-24T12:04:52;3.00;;;1.95;;
29568;SDS011;16501;51.462;14.346;2023-04-24T12:07:18;3.13;;;0.70;;
29568;SDS011;16501;51.462;14.346;2023-04-24T12:09:47;4.70;;;2.83;;
29568;SDS011;16501;51.462;14.346;2023-04-24T12:12:15;4.13;;;2.13;;
29568;SDS011;16501;51.462;14.346;2023-04-24T12:17:10;5.25;;;1.50;;
29568;SDS011;16501;51.462;14.346;2023-04-24T12:19:35;4.55;;;1.67;;
29568;SDS011;16501;51.462;14.346;2023-04-24T12:22:01;2.05;;;1.42;;
29568;SDS011;16501;51.462;14.346;2023-04-24T12:24:31;4.22;;;1.40;;
29568;SDS011;16501;51.462;14.346;2023-04-24T12:26:57;1.27;;;0.47;;
29568;SDS011;16501;51.462;14.346;2023-04-24T12:29:23;1.10;;;0.45;;
29568;SDS011;16501;51.462;14.346;2023-04-24T12:31:50;2.22;;;0.57;;
29568;SDS011;16501;51.462;14.346;2023-04-24T12:34:17;1.38;;;0.40;;
29568;SDS011;16501;51.462;14.346;2023-04-24T12:36:46;1.05;;;0.40;;
29568;SDS011;16501;51.462;14.346;2023-04-24T12:39:16;1.33;;;0.52;;
29568;SDS011;16501;51.462;14.346;2023-04-24T12:41:50;5.60;;;0.75;;
29568;SDS011;16501;51.462;14.346;2023-04-24T12:44:16;1.38;;;0.73;;
29568;SDS011;16501;51.462;14.346;2023-04-24T12:46:41;1.13;;;0.50;;
29568;SDS011;16501;51.462;14.346;2023-04-24T12:49:07;0.70;;;0.60;;
29568;SDS011;16501;51.462;14.346;2023-04-24T12:51:32;1.67;;;0.50;;
29568;SDS011;16501;51.462;14.346;2023-04-24T12:53:57;1.40;;;0.50;;
29568;SDS011;16501;51.462;14.346;2023-04-24T12:56:23;1.25;;;0.68;;
29568;SDS011;16501;51.462;14.346;2023-04-24T12:58:49;1.30;;;0.63;;
29568;SDS011;16501;51.462;14.346;2023-04-24T13:01:16;1.80;;;0.60;;
29568;SDS011;16501;51.462;14.346;2023-04-24T13:03:41;2.83;;;1.10;;
29568;SDS011;16501;51.462;14.346;2023-04-24T13:06:07;2.08;;;0.93;;
29568;SDS011;16501;51.462;14.346;2023-04-24T13:08:32;2.42;;;1.50;;
29568;SDS011;16501;51.462;14.346;2023-04-24T13:10:57;4.93;;;2.00;;
29568;SDS011;16501;51.462;14.346;2023-04-24T13:13:23;9.63;;;1.80;;
29568;SDS011;16501;51.462;14.346;2023-04-24T13:15:48;1.52;;;1.10;;
29568;SDS011;16501;51.462;14.346;2023-04-24T13:18:13;4.68;;;2.90;;
29568;SDS011;16501;51.462;14.346;2023-04-24T13:20:39;2.40;;;1.83;;
29568;SDS011;16501;51.462;14.346;2023-04-24T13:23:05;4.13;;;1.40;;
29568;SDS011;16501;51.462;14.346;2023-04-24T13:25:34;1.77;;;1.17;;
29568;SDS011;16501;51.462;14.346;2023-04-24T13:28:00;3.20;;;1.05;;
29568;SDS011;16501;51.462;14.346;2023-04-24T13:30:26;1.38;;;0.75;;
29568;SDS011;16501;51.462;14.346;2023-04-24T13:32:51;1.42;;;0.70;;
29568;SDS011;16501;51.462;14.346;2023-04-24T13:35:16;1.52;;;0.63;;
29568;SDS011;16501;51.462;14.346;2023-04-24T13:37:41;5.35;;;0.68;;
29568;SDS011;16501;51.462;14.346;2023-04-24T13:40:07;4.75;;;0.93;;
29568;SDS011;16501;51.462;14.346;2023-04-24T13:42:33;0.85;;;0.70;;
29568;SDS011;16501;51.462;14.346;2023-04-24T13:44:58;1.95;;;1.75;;
29568;SDS011;16501;51.462;14.346;2023-04-24T13:47:23;1.10;;;0.70;;
29568;SDS011;16501;51.462;14.346;2023-04-24T13:49:49;4.35;;;1.20;;
29568;SDS011;16501;51.462;14.346;2023-04-24T13:52:14;1.23;;;0.80;;
29568;SDS011;16501;51.462;14.346;2023-04-24T13:54:40;2.53;;;0.98;;
29568;SDS011;16501;51.462;14.346;2023-04-24T13:57:05;2.67;;;0.82;;
29568;SDS011;16501;51.462;14.346;2023-04-24T13:59:37;1.63;;;0.68;;
29568;SDS011;16501;51.462;14.346;2023-04-24T14:02:03;1.65;;;0.77;;
29568;SDS011;16501;51.462;14.346;2023-04-24T14:04:28;1.77;;;0.60;;
29568;SDS011;16501;51.462;14.346;2023-04-24T14:06:53;1.08;;;0.80;;
29568;SDS011;16501;51.462;14.346;2023-04-24T14:09:19;3.58;;;0.68;;
29568;SDS011;16501;51.462;14.346;2023-04-24T14:11:44;1.20;;;0.90;;
29568;SDS011;16501;51.462;14.346;2023-04-24T14:14:10;1.60;;;0.80;;
29568;SDS011;16501;51.462;14.346;2023-04-24T14:16:35;2.53;;;1.50;;
29568;SDS011;16501;51.462;14.346;2023-04-24T14:19:00;4.30;;;1.00;;
29568;SDS011;16501;51.462;14.346;2023-04-24T14:21:25;2.47;;;0.70;;
29568;SDS011;16501;51.462;14.346;2023-04-24T14:23:51;1.08;;;0.98;;
29568;SDS011;16501;51.462;14.346;2023-04-24T14:26:16;3.38;;;0.63;;
29568;SDS011;16501;51.462;14.346;2023-04-24T14:28:41;1.98;;;0.85;;
29568;SDS011;16501;51.462;14.346;2023-04-24T14:31:06;3.10;;;0.82;;
29568;SDS011;16501;51.462;14.346;2023-04-24T14:33:33;2.33;;;0.90;;
29568;SDS011;16501;51.462;14.346;2023-04-24T14:35:58;2.95;;;1.30;;
29568;SDS011;16501;51.462;14.346;2023-04-24T14:38:23;2.15;;;0.77;;
29568;SDS011;16501;51.462;14.346;2023-04-24T14:40:49;3.60;;;0.70;;
29568;SDS011;16501;51.462;14.346;2023-04-24T14:43:14;0.93;;;0.70;;
29568;SDS011;16501;51.462;14.346;2023-04-24T14:45:39;5.57;;;0.70;;
29568;SDS011;16501;51.462;14.346;2023-04-24T14:48:06;3.33;;;0.80;;
29568;SDS011;16501;51.462;14.346;2023-04-24T14:50:32;0.50;;;0.50;;
29568;SDS011;16501;51.462;14.346;2023-04-24T14:52:58;1.75;;;0.95;;